createdAt,value
2022-08-20T00:01:42.244Z,100.00
2022-08-20T00:04:46.136Z,98.86
2022-08-20T00:07:50.352Z,98.59
2022-08-20T00:10:55.695Z,98.34
2022-08-20T00:14:03.645Z,99.20
2022-08-20T00:17:06.943Z,98.41
2022-08-20T00:20:13.427Z,98.31
2022-08-20T00:23:17.951Z,98.49
2022-08-20T00:26:21.233Z,97.73
2022-08-20T00:29:24.501Z,97.57
2022-08-20T00:32:27.281Z,96.94
2022-08-20T00:35:34.182Z,98.01
2022-08-20T00:38:39.121Z,97.79
2022-08-20T00:41:42.303Z,97.04
2022-08-20T00:44:47.846Z,97.84
2022-08-20T00:47:51.985Z,97.12
2022-08-20T00:50:58.261Z,97.75
2022-08-20T00:54:21.777Z,97.67
2022-08-20T00:57:59.704Z,97.87
2022-08-20T01:00:54.038Z,97.42
2022-08-20T01:03:57.694Z,97.72
2022-08-20T01:07:01.522Z,97.41
2022-08-20T01:10:09.476Z,97.59
2022-08-20T01:13:16.048Z,97.98
2022-08-20T01:16:23.079Z,98.08
2022-08-20T01:19:32.228Z,98.30
2022-08-20T01:23:23.438Z,97.95
2022-08-20T01:26:32.465Z,97.09
2022-08-20T01:29:38.941Z,98.18
2022-08-20T01:32:42.608Z,97.70
2022-08-20T01:35:45.820Z,97.18
2022-08-20T01:38:53.961Z,97.34
2022-08-20T01:42:19.731Z,96.69
2022-08-20T01:45:26.967Z,95.79
2022-08-20T01:48:31.096Z,96.08
2022-08-20T01:51:34.574Z,96.52
2022-08-20T01:54:38.188Z,95.34
2022-08-20T01:57:43.649Z,94.16
2022-08-20T02:00:46.607Z,93.96
2022-08-20T02:03:50.245Z,94.13
2022-08-20T02:06:59.653Z,93.93
2022-08-20T02:10:04.270Z,94.36
2022-08-20T02:13:09.932Z,94.10
2022-08-20T02:16:13.201Z,93.80
2022-08-20T02:19:22.820Z,93.04
2022-08-20T02:22:50.617Z,94.77
2022-08-20T02:25:54.130Z,96.10
2022-08-20T02:28:57.732Z,95.33
2022-08-20T02:32:32.027Z,94.38
2022-08-20T02:35:30.549Z,94.10
2022-08-20T02:38:35.418Z,94.73
2022-08-20T02:41:39.598Z,93.20
2022-08-20T02:44:44.299Z,94.26
2022-08-20T02:47:47.607Z,93.74
2022-08-20T02:50:59.186Z,91.12
2022-08-20T02:54:02.272Z,90.39
2022-08-20T02:57:06.296Z,90.47
2022-08-20T03:00:15.431Z,89.94
2022-08-20T03:03:22.727Z,89.77
2022-08-20T03:06:27.818Z,89.35
2022-08-20T03:09:31.023Z,88.78
2022-08-20T03:12:34.524Z,87.44
2022-08-20T03:15:39.374Z,88.17
2022-08-20T03:18:44.845Z,91.81
2022-08-20T03:21:48.087Z,94.36
2022-08-20T03:24:51.063Z,95.11
2022-08-20T03:27:57.686Z,96.11
2022-08-20T03:31:01.595Z,96.65
2022-08-20T03:34:05.410Z,97.49
2022-08-20T03:37:09.362Z,98.89
2022-08-20T03:40:20.732Z,100.00
2022-08-20T03:43:24.423Z,100.00
2022-08-20T03:46:27.604Z,100.00
2022-08-20T03:49:31.844Z,100.00
2022-08-20T03:52:35.940Z,100.00
2022-08-20T03:55:40.534Z,100.00
2022-08-20T03:58:44.419Z,100.00
2022-08-20T04:01:47.525Z,99.86
2022-08-20T04:04:51.253Z,99.00
2022-08-20T04:07:55.255Z,99.05
2022-08-20T04:11:00.401Z,98.75
2022-08-20T04:14:03.610Z,98.38
2022-08-20T04:17:10.065Z,98.15
2022-08-20T04:20:16.078Z,95.30
2022-08-20T04:23:21.360Z,92.61
2022-08-20T04:26:25.632Z,91.96
2022-08-20T04:29:31.848Z,89.65
2022-08-20T04:32:37.657Z,92.50
2022-08-20T04:35:41.710Z,90.41
2022-08-20T04:38:49.793Z,87.19
2022-08-20T04:41:54.582Z,88.71
2022-08-20T04:44:57.485Z,90.51
2022-08-20T04:48:06.706Z,91.42
2022-08-20T04:51:11.013Z,92.47
2022-08-20T04:54:14.906Z,92.11
2022-08-20T04:57:17.907Z,91.16
2022-08-20T05:00:21.511Z,90.38
2022-08-20T05:03:24.712Z,89.12
2022-08-20T05:06:31.845Z,87.70
2022-08-20T05:09:43.646Z,87.80
2022-08-20T05:12:56.667Z,87.67
2022-08-20T05:16:02.117Z,90.69
2022-08-20T05:19:08.916Z,91.86
2022-08-20T05:22:11.978Z,93.07
2022-08-20T05:25:15.268Z,94.61
2022-08-20T05:28:24.989Z,95.72
2022-08-20T05:31:31.376Z,95.92
2022-08-20T05:34:36.853Z,93.97
2022-08-20T05:37:42.976Z,92.27
2022-08-20T05:40:46.183Z,95.75
2022-08-20T05:43:51.553Z,97.60
2022-08-20T05:46:54.261Z,96.35
2022-08-20T05:49:58.706Z,95.46
2022-08-20T05:53:02.391Z,96.91
2022-08-20T05:56:05.636Z,97.18
2022-08-20T05:59:10.971Z,97.03
2022-08-20T06:02:33.948Z,94.87
2022-08-20T06:05:37.683Z,94.00
2022-08-20T06:08:41.829Z,91.34
2022-08-20T06:11:45.473Z,90.91
2022-08-20T06:14:48.658Z,90.00
2022-08-20T06:17:58.334Z,89.87
2022-08-20T06:21:01.775Z,89.32
2022-08-20T06:24:08.055Z,88.17
2022-08-20T06:27:14.910Z,88.07
2022-08-20T06:30:18.485Z,86.48
2022-08-20T06:33:21.378Z,83.41
2022-08-20T06:36:26.396Z,83.13
2022-08-20T06:39:31.201Z,84.04
2022-08-20T06:42:35.057Z,81.95
2022-08-20T06:45:39.297Z,82.90
2022-08-20T06:48:43.356Z,80.59
2022-08-20T06:51:52.071Z,80.65
2022-08-20T06:54:55.614Z,80.22
2022-08-20T06:58:06.246Z,77.13
2022-08-20T07:01:11.503Z,79.27
2022-08-20T07:04:16.101Z,75.49
2022-08-20T07:07:20.671Z,74.51
2022-08-20T07:10:25.312Z,74.16
2022-08-20T07:13:29.702Z,74.65
2022-08-20T07:16:33.276Z,73.41
2022-08-20T07:19:37.699Z,72.31
2022-08-20T07:22:42.502Z,73.50
2022-08-20T07:25:46.340Z,69.71
2022-08-20T07:28:50.259Z,69.23
2022-08-20T07:32:12.337Z,67.89
2022-08-20T07:35:18.121Z,69.15
2022-08-20T07:38:26.800Z,69.66
2022-08-20T07:41:29.805Z,68.10
2022-08-20T07:44:34.118Z,68.31
2022-08-20T07:47:39.384Z,64.97
2022-08-20T07:50:43.188Z,65.64
2022-08-20T07:53:47.300Z,69.63
2022-08-20T07:56:50.541Z,68.51
2022-08-20T07:59:55.104Z,69.95
2022-08-20T08:02:59.225Z,71.43
2022-08-20T08:06:02.843Z,74.10
2022-08-20T08:09:11.115Z,76.98
2022-08-20T08:12:15.219Z,78.33
2022-08-20T08:15:23.876Z,79.40
2022-08-20T08:18:31.991Z,77.84
2022-08-20T08:21:35.277Z,77.27
2022-08-20T08:24:39.317Z,78.91
2022-08-20T08:27:43.549Z,81.04
2022-08-20T08:30:49.070Z,91.02
2022-08-20T08:33:52.427Z,97.97
2022-08-20T08:36:56.714Z,100.00
2022-08-20T08:40:01.544Z,100.00
2022-08-20T08:43:05.635Z,100.00
2022-08-20T08:46:12.924Z,100.00
2022-08-20T08:49:30.138Z,100.00
2022-08-20T08:52:44.062Z,100.00
2022-08-20T08:55:48.034Z,100.00
2022-08-20T08:58:51.470Z,100.00
2022-08-20T09:01:57.587Z,100.00
2022-08-20T09:05:04.084Z,100.00
2022-08-20T09:08:16.333Z,100.00
2022-08-20T09:11:23.000Z,100.00
2022-08-20T09:14:26.498Z,100.00
2022-08-20T09:17:34.144Z,100.00
2022-08-20T09:20:38.136Z,100.00
2022-08-20T09:23:42.001Z,100.00
2022-08-20T09:26:46.104Z,100.00
2022-08-20T09:29:50.768Z,100.00
2022-08-20T09:32:54.213Z,100.00
2022-08-20T09:35:58.338Z,100.00
2022-08-20T09:39:03.557Z,100.00
2022-08-20T09:42:15.040Z,100.00
2022-08-20T09:45:18.605Z,100.00
2022-08-20T09:48:32.007Z,100.00
2022-08-20T09:51:38.494Z,100.00
2022-08-20T09:54:42.317Z,100.00
2022-08-20T09:57:51.383Z,100.00
2022-08-20T10:00:56.763Z,100.00
2022-08-20T10:04:00.490Z,100.00
2022-08-20T10:07:08.862Z,100.00
2022-08-20T10:10:15.063Z,100.00
2022-08-20T10:13:18.446Z,100.00
2022-08-20T10:16:22.021Z,100.00
2022-08-20T10:19:25.303Z,100.00
2022-08-20T10:22:29.396Z,100.00
2022-08-20T10:25:33.254Z,100.00
2022-08-20T10:28:38.233Z,100.00
2022-08-20T10:31:41.196Z,100.00
2022-08-20T10:34:48.204Z,100.00
2022-08-20T10:37:51.981Z,100.00
2022-08-20T10:40:56.703Z,100.00
2022-08-20T10:44:00.313Z,100.00
2022-08-20T10:47:25.235Z,100.00
2022-08-20T10:50:30.317Z,100.00
2022-08-20T10:53:35.338Z,100.00
2022-08-20T10:56:38.852Z,100.00
2022-08-20T10:59:46.555Z,100.00
2022-08-20T11:02:49.466Z,100.00
2022-08-20T11:05:53.216Z,100.00
2022-08-20T11:08:57.499Z,100.00
2022-08-20T11:12:01.221Z,100.00
2022-08-20T11:15:05.982Z,100.00
2022-08-20T11:18:14.208Z,100.00
2022-08-20T11:21:17.639Z,100.00
2022-08-20T11:24:20.589Z,100.00
2022-08-20T11:27:30.875Z,100.00
2022-08-20T11:30:36.427Z,100.00
2022-08-20T11:33:42.173Z,100.00
2022-08-20T11:36:46.038Z,100.00
2022-08-20T11:39:49.305Z,100.00
2022-08-20T11:43:13.524Z,100.00
2022-08-20T11:46:17.836Z,100.00
2022-08-20T11:49:21.006Z,100.00
2022-08-20T11:52:28.119Z,100.00
2022-08-20T11:55:32.722Z,100.00
2022-08-20T11:58:36.737Z,100.00
2022-08-20T12:01:40.183Z,100.00
2022-08-20T12:04:44.305Z,100.00
2022-08-20T12:07:47.729Z,100.00
2022-08-20T12:10:51.391Z,100.00
2022-08-20T12:13:54.518Z,100.00
2022-08-20T12:16:58.689Z,100.00
2022-08-20T12:20:07.836Z,100.00
2022-08-20T12:23:14.146Z,100.00
2022-08-20T12:26:18.591Z,100.00
2022-08-20T12:29:26.177Z,100.00
2022-08-20T12:32:31.683Z,100.00
2022-08-20T12:35:35.701Z,100.00
2022-08-20T12:38:41.579Z,100.00
2022-08-20T12:41:45.654Z,100.00
2022-08-20T12:44:51.877Z,100.00
2022-08-20T12:48:01.617Z,100.00
2022-08-20T12:51:04.521Z,100.00
2022-08-20T12:54:09.274Z,100.00
2022-08-20T12:57:22.747Z,100.00
2022-08-20T13:00:31.951Z,100.00
2022-08-20T13:03:40.799Z,100.00
2022-08-20T13:06:48.738Z,100.00
2022-08-20T13:09:53.655Z,100.00
2022-08-20T13:12:58.115Z,100.00
2022-08-20T13:16:02.214Z,100.00
2022-08-20T13:19:05.461Z,100.00
2022-08-20T13:22:11.277Z,100.00
2022-08-20T13:25:14.787Z,100.00
2022-08-20T13:28:19.537Z,100.00
2022-08-20T13:31:23.286Z,100.00
2022-08-20T13:34:27.723Z,100.00
2022-08-20T13:37:31.039Z,100.00
2022-08-20T13:40:34.806Z,100.00
2022-08-20T13:43:38.411Z,100.00
2022-08-20T13:46:42.220Z,100.00
2022-08-20T13:49:47.767Z,100.00
2022-08-20T13:52:51.756Z,100.00
2022-08-20T13:55:55.036Z,100.00
2022-08-20T13:58:59.622Z,100.00
2022-08-20T14:02:06.995Z,100.00
2022-08-20T14:05:11.520Z,100.00
2022-08-20T14:08:23.163Z,100.00
2022-08-20T14:11:26.659Z,100.00
2022-08-20T14:14:29.757Z,100.00
2022-08-20T14:17:37.585Z,100.00
2022-08-20T14:20:41.598Z,100.00
2022-08-20T14:23:44.714Z,100.00
2022-08-20T14:26:48.463Z,100.00
2022-08-20T14:29:52.566Z,100.00
2022-08-20T14:32:56.277Z,100.00
2022-08-20T14:35:59.454Z,100.00
2022-08-20T14:39:03.168Z,100.00
2022-08-20T14:42:09.364Z,100.00
2022-08-20T14:45:14.137Z,100.00
2022-08-20T14:48:19.268Z,100.00
2022-08-20T14:51:22.125Z,100.00
2022-08-20T14:54:26.887Z,100.00
2022-08-20T14:57:30.087Z,100.00
2022-08-20T15:00:34.794Z,100.00
2022-08-20T15:03:39.454Z,100.00
2022-08-20T15:06:44.627Z,100.00
2022-08-20T15:09:48.460Z,100.00
2022-08-20T15:12:52.298Z,100.00
2022-08-20T15:15:58.031Z,100.00
2022-08-20T15:19:02.567Z,100.00
2022-08-20T15:22:05.898Z,100.00
2022-08-20T15:25:14.322Z,100.00
2022-08-20T15:28:18.694Z,100.00
2022-08-20T15:31:23.499Z,100.00
2022-08-20T15:34:30.993Z,100.00
2022-08-20T15:37:35.231Z,100.00
2022-08-20T15:40:38.568Z,100.00
2022-08-20T15:43:42.438Z,100.00
2022-08-20T15:46:45.341Z,100.00
2022-08-20T15:49:50.800Z,100.00
2022-08-20T15:52:56.140Z,100.00
2022-08-20T15:56:20.659Z,100.00
2022-08-20T15:59:58.668Z,100.00
2022-08-20T16:03:39.709Z,100.00
2022-08-20T16:06:43.443Z,100.00
2022-08-20T16:10:20.843Z,100.00
2022-08-20T16:13:45.490Z,100.00
2022-08-20T16:17:02.120Z,100.00
2022-08-20T16:20:13.449Z,100.00
2022-08-20T16:23:20.685Z,100.00
2022-08-20T16:26:23.946Z,100.00
2022-08-20T16:29:43.394Z,100.00
2022-08-20T16:32:50.673Z,100.00
2022-08-20T16:36:04.034Z,100.00
2022-08-20T16:39:12.349Z,100.00
2022-08-20T16:42:19.302Z,100.00
2022-08-20T16:45:47.822Z,100.00
2022-08-20T16:49:08.890Z,100.00
2022-08-20T16:52:12.505Z,100.00
2022-08-20T16:55:16.106Z,100.00
2022-08-20T16:58:23.114Z,100.00
2022-08-20T17:01:26.784Z,100.00
2022-08-20T17:04:31.357Z,100.00
2022-08-20T17:07:46.144Z,100.00
2022-08-20T17:10:57.044Z,100.00
2022-08-20T17:14:10.555Z,100.00
2022-08-20T17:17:40.492Z,100.00
2022-08-20T17:20:45.868Z,100.00
2022-08-20T17:23:57.050Z,100.00
2022-08-20T17:27:02.333Z,100.00
2022-08-20T17:30:19.863Z,100.00
2022-08-20T17:33:25.475Z,100.00
2022-08-20T17:36:29.072Z,100.00
2022-08-20T17:39:32.428Z,100.00
2022-08-20T17:42:49.501Z,100.00
2022-08-20T17:45:56.957Z,100.00
2022-08-20T17:49:02.638Z,100.00
2022-08-20T17:52:17.302Z,100.00
2022-08-20T17:55:22.544Z,100.00
2022-08-20T17:58:39.044Z,100.00
2022-08-20T18:01:47.513Z,100.00
2022-08-20T18:04:52.053Z,100.00
2022-08-20T18:08:06.801Z,100.00
2022-08-20T18:11:20.362Z,100.00
2022-08-20T18:14:47.836Z,100.00
2022-08-20T18:18:18.596Z,100.00
2022-08-20T18:21:43.507Z,100.00
2022-08-20T18:24:56.666Z,100.00
2022-08-20T18:28:07.794Z,100.00
2022-08-20T18:31:25.109Z,100.00
2022-08-20T18:34:32.706Z,100.00
2022-08-20T18:37:37.516Z,100.00
2022-08-20T18:40:42.133Z,100.00
2022-08-20T18:43:46.660Z,100.00
2022-08-20T18:46:55.467Z,100.00
2022-08-20T18:50:23.769Z,100.00
2022-08-20T18:53:36.538Z,100.00
2022-08-20T18:56:44.614Z,100.00
2022-08-20T19:00:16.520Z,100.00
2022-08-20T19:03:30.515Z,100.00
2022-08-20T19:06:57.641Z,100.00
2022-08-20T19:10:28.083Z,100.00
2022-08-20T19:13:51.127Z,100.00
2022-08-20T19:17:06.917Z,100.00
2022-08-20T19:20:22.945Z,100.00
2022-08-20T19:23:31.271Z,100.00
2022-08-20T19:26:43.485Z,100.00
2022-08-20T19:29:56.788Z,100.00
2022-08-20T19:33:01.361Z,100.00
2022-08-20T19:36:28.970Z,100.00
2022-08-20T19:39:37.156Z,100.00
2022-08-20T19:42:42.966Z,100.00
2022-08-20T19:46:00.379Z,100.00
2022-08-20T19:49:12.913Z,100.00
2022-08-20T19:52:30.045Z,100.00
2022-08-20T19:55:36.286Z,100.00
2022-08-20T19:58:40.855Z,100.00
2022-08-20T20:01:58.851Z,100.00
2022-08-20T20:05:07.997Z,100.00
2022-08-20T20:08:12.468Z,100.00
2022-08-20T20:11:21.833Z,100.00
2022-08-20T20:14:31.743Z,100.00
2022-08-20T20:17:38.277Z,100.00
2022-08-20T20:20:57.885Z,100.00
2022-08-20T20:24:03.719Z,100.00
2022-08-20T20:27:15.069Z,100.00
2022-08-20T20:30:32.423Z,100.00
2022-08-20T20:33:43.391Z,100.00
2022-08-20T20:36:49.180Z,100.00
2022-08-20T20:40:01.251Z,100.00
2022-08-20T20:43:10.580Z,100.00
2022-08-20T20:46:22.574Z,100.00
2022-08-20T20:49:37.106Z,100.00
2022-08-20T20:52:54.532Z,100.00
2022-08-20T20:56:01.148Z,100.00
2022-08-20T20:59:07.459Z,100.00
2022-08-20T21:02:12.370Z,100.00
2022-08-20T21:05:20.771Z,100.00
2022-08-20T21:08:26.030Z,100.00
2022-08-20T21:11:34.548Z,100.00
2022-08-20T21:14:40.093Z,100.00
2022-08-20T21:17:42.961Z,100.00
2022-08-20T21:20:48.544Z,100.00
2022-08-20T21:23:51.294Z,100.00
2022-08-20T21:27:01.961Z,100.00
2022-08-20T21:30:08.315Z,100.00
2022-08-20T21:33:12.768Z,100.00
2022-08-20T21:36:17.886Z,100.00
2022-08-20T21:39:21.073Z,100.00
2022-08-20T21:42:29.183Z,100.00
2022-08-20T21:45:36.555Z,100.00
2022-08-20T21:48:44.116Z,100.00
2022-08-20T21:51:51.483Z,100.00
2022-08-20T21:54:56.331Z,100.00
2022-08-20T21:57:59.392Z,100.00
2022-08-20T22:01:04.969Z,100.00
2022-08-20T22:04:07.936Z,100.00
2022-08-20T22:07:11.571Z,100.00
2022-08-20T22:10:14.968Z,100.00
2022-08-20T22:13:18.405Z,100.00
2022-08-20T22:16:24.664Z,100.00
2022-08-20T22:19:28.463Z,100.00
2022-08-20T22:22:33.167Z,100.00
2022-08-20T22:25:36.575Z,100.00
2022-08-20T22:28:40.635Z,100.00
2022-08-20T22:31:44.241Z,100.00
2022-08-20T22:34:47.797Z,100.00
2022-08-20T22:37:50.898Z,100.00
2022-08-20T22:40:55.410Z,100.00
2022-08-20T22:43:58.768Z,100.00
2022-08-20T22:47:08.193Z,100.00
2022-08-20T22:50:12.823Z,100.00
2022-08-20T22:53:18.076Z,100.00
2022-08-20T22:56:21.752Z,100.00
2022-08-20T22:59:27.477Z,100.00
2022-08-20T23:02:32.300Z,100.00
2022-08-20T23:05:37.919Z,100.00
2022-08-20T23:08:42.620Z,100.00
2022-08-20T23:11:46.864Z,100.00
2022-08-20T23:14:52.825Z,100.00
2022-08-20T23:18:00.399Z,100.00
2022-08-20T23:21:03.838Z,100.00
2022-08-20T23:24:07.693Z,100.00
2022-08-20T23:27:19.621Z,100.00
2022-08-20T23:30:24.420Z,100.00
2022-08-20T23:33:27.993Z,100.00
2022-08-20T23:36:31.966Z,100.00
2022-08-20T23:39:35.547Z,100.00
2022-08-20T23:42:39.248Z,100.00
2022-08-20T23:45:43.181Z,100.00
2022-08-20T23:48:46.948Z,100.00
2022-08-20T23:51:49.713Z,100.00
2022-08-20T23:54:52.779Z,100.00
2022-08-20T23:57:55.897Z,100.00
